sensor_id;sensor_type;location;lat;lon;timestamp;pressure;altitude;pressure_sealevel;temperature;humidity
36062;BME280;22123;52.412;20.970;2023-03-21T00:01:04;100533.56;;;7.16;100.00
36062;BME280;22123;52.412;20.970;2023-03-21T00:03:31;100511.88;;;7.09;100.00
36062;BME280;22123;52.412;20.970;2023-03-21T00:05:58;100470.88;;;6.81;100.00
36062;BME280;22123;52.412;20.970;2023-03-21T00:08:25;100522.84;;;7.16;100.00
36062;BME280;22123;52.412;20.970;2023-03-21T00:11:02;100519.59;;;7.12;100.00
36062;BME280;22123;52.412;20.970;2023-03-21T00:13:29;100459.63;;;6.77;100.00
36062;BME280;22123;52.412;20.970;2023-03-21T00:15:55;100526.91;;;7.20;100.00
36062;BME280;22123;52.412;20.970;2023-03-21T00:18:21;100495.44;;;7.04;100.00
36062;BME280;22123;52.412;20.970;2023-03-21T00:20:58;100512.13;;;7.16;100.00
36062;BME280;22123;52.412;20.970;2023-03-21T00:23:26;100515.34;;;7.20;100.00
36062;BME280;22123;52.412;20.970;2023-03-21T00:25:52;100502.69;;;7.12;100.00
36062;BME280;22123;52.412;20.970;2023-03-21T00:28:18;100501.31;;;7.08;100.00
36062;BME280;22123;52.412;20.970;2023-03-21T00:30:45;100474.72;;;6.96;100.00
36062;BME280;22123;52.412;20.970;2023-03-21T00:33:10;100509.16;;;7.19;100.00
36062;BME280;22123;52.412;20.970;2023-03-21T00:35:37;100514.19;;;7.22;100.00
36062;BME280;22123;52.412;20.970;2023-03-21T00:38:03;100475.91;;;6.94;100.00
36062;BME280;22123;52.412;20.970;2023-03-21T00:40:29;100504.94;;;7.17;100.00
36062;BME280;22123;52.412;20.970;2023-03-21T00:42:55;100505.97;;;7.06;100.00
36062;BME280;22123;52.412;20.970;2023-03-21T00:45:21;100508.63;;;7.16;100.00
36062;BME280;22123;52.412;20.970;2023-03-21T00:47:47;100466.78;;;6.87;100.00
36062;BME280;22123;52.412;20.970;2023-03-21T00:50:13;100452.03;;;6.73;100.00
36062;BME280;22123;52.412;20.970;2023-03-21T00:52:38;100456.78;;;6.79;100.00
36062;BME280;22123;52.412;20.970;2023-03-21T00:55:05;100509.75;;;7.13;100.00
36062;BME280;22123;52.412;20.970;2023-03-21T00:57:31;100508.06;;;7.12;100.00
36062;BME280;22123;52.412;20.970;2023-03-21T00:59:57;100507.22;;;7.11;100.00
36062;BME280;22123;52.412;20.970;2023-03-21T01:02:24;100506.50;;;7.09;100.00
36062;BME280;22123;52.412;20.970;2023-03-21T01:04:50;100477.72;;;6.93;100.00
36062;BME280;22123;52.412;20.970;2023-03-21T01:07:15;100458.47;;;6.80;100.00
36062;BME280;22123;52.412;20.970;2023-03-21T01:09:41;100467.75;;;6.86;100.00
36062;BME280;22123;52.412;20.970;2023-03-21T01:12:07;100457.94;;;6.76;100.00
36062;BME280;22123;52.412;20.970;2023-03-21T01:14:33;100442.69;;;6.59;100.00
36062;BME280;22123;52.412;20.970;2023-03-21T01:16:59;100501.66;;;6.95;100.00
36062;BME280;22123;52.412;20.970;2023-03-21T01:19:25;100465.03;;;6.68;100.00
36062;BME280;22123;52.412;20.970;2023-03-21T01:21:51;100478.66;;;6.74;100.00
36062;BME280;22123;52.412;20.970;2023-03-21T01:24:17;100493.84;;;6.84;100.00
36062;BME280;22123;52.412;20.970;2023-03-21T01:26:42;100496.59;;;6.92;100.00
36062;BME280;22123;52.412;20.970;2023-03-21T01:29:08;100496.91;;;6.89;100.00
36062;BME280;22123;52.412;20.970;2023-03-21T01:31:34;100484.25;;;6.81;100.00
36062;BME280;22123;52.412;20.970;2023-03-21T01:34:00;100443.69;;;6.48;100.00
36062;BME280;22123;52.412;20.970;2023-03-21T01:36:26;100499.19;;;6.84;100.00
36062;BME280;22123;52.412;20.970;2023-03-21T01:38:53;100449.16;;;6.56;100.00
36062;BME280;22123;52.412;20.970;2023-03-21T01:41:38;100471.66;;;6.64;100.00
36062;BME280;22123;52.412;20.970;2023-03-21T01:44:04;100458.16;;;6.55;100.00
36062;BME280;22123;52.412;20.970;2023-03-21T01:46:45;100457.63;;;6.52;100.00
36062;BME280;22123;52.412;20.970;2023-03-21T01:49:24;100488.50;;;6.74;100.00
36062;BME280;22123;52.412;20.970;2023-03-21T01:52:02;100500.91;;;6.75;100.00
36062;BME280;22123;52.412;20.970;2023-03-21T01:54:32;100471.97;;;6.60;100.00
36062;BME280;22123;52.412;20.970;2023-03-21T01:57:02;100447.75;;;6.52;100.00
36062;BME280;22123;52.412;20.970;2023-03-21T01:59:42;100483.69;;;6.77;100.00
36062;BME280;22123;52.412;20.970;2023-03-21T02:02:12;100460.41;;;6.60;100.00
36062;BME280;22123;52.412;20.970;2023-03-21T02:04:39;100439.47;;;6.46;100.00
36062;BME280;22123;52.412;20.970;2023-03-21T02:07:09;100468.25;;;6.71;100.00
36062;BME280;22123;52.412;20.970;2023-03-21T02:09:38;100483.53;;;6.79;100.00
36062;BME280;22123;52.412;20.970;2023-03-21T02:12:07;100432.84;;;6.50;100.00
36062;BME280;22123;52.412;20.970;2023-03-21T02:14:35;100481.88;;;6.78;100.00
36062;BME280;22123;52.412;20.970;2023-03-21T02:39:40;100443.00;;;6.46;100.00
36062;BME280;22123;52.412;20.970;2023-03-21T02:42:20;100459.88;;;6.47;100.00
36062;BME280;22123;52.412;20.970;2023-03-21T02:45:00;100485.47;;;6.59;100.00
36062;BME280;22123;52.412;20.970;2023-03-21T02:47:32;100496.28;;;6.57;100.00
36062;BME280;22123;52.412;20.970;2023-03-21T02:50:12;100486.75;;;6.55;100.00
36062;BME280;22123;52.412;20.970;2023-03-21T02:52:41;100473.41;;;6.45;100.00
36062;BME280;22123;52.412;20.970;2023-03-21T02:55:16;100416.63;;;6.04;100.00
36062;BME280;22123;52.412;20.970;2023-03-21T02:57:47;100449.22;;;6.27;100.00
36062;BME280;22123;52.412;20.970;2023-03-21T03:00:24;100493.53;;;6.49;100.00
36062;BME280;22123;52.412;20.970;2023-03-21T03:02:50;100448.00;;;6.21;100.00
36062;BME280;22123;52.412;20.970;2023-03-21T03:05:19;100474.81;;;6.39;100.00
36062;BME280;22123;52.412;20.970;2023-03-21T03:21:39;100510.84;;;6.45;100.00
36062;BME280;22123;52.412;20.970;2023-03-21T03:26:55;100465.03;;;6.20;100.00
36062;BME280;22123;52.412;20.970;2023-03-21T03:29:22;100477.25;;;6.23;100.00
36062;BME280;22123;52.412;20.970;2023-03-21T03:31:59;100420.44;;;5.91;100.00
36062;BME280;22123;52.412;20.970;2023-03-21T03:34:32;100508.03;;;6.47;100.00
36062;BME280;22123;52.412;20.970;2023-03-21T03:37:02;100445.78;;;6.07;100.00
36062;BME280;22123;52.412;20.970;2023-03-21T03:39:33;100451.53;;;6.12;100.00
36062;BME280;22123;52.412;20.970;2023-03-21T03:42:04;100520.41;;;6.48;100.00
36062;BME280;22123;52.412;20.970;2023-03-21T03:44:31;100447.44;;;6.08;100.00
36062;BME280;22123;52.412;20.970;2023-03-21T03:47:11;100510.84;;;6.45;100.00
36062;BME280;22123;52.412;20.970;2023-03-21T03:49:45;100505.50;;;6.45;100.00
36062;BME280;22123;52.412;20.970;2023-03-21T03:52:20;100517.88;;;6.46;100.00
36062;BME280;22123;52.412;20.970;2023-03-21T03:54:48;100513.66;;;6.43;100.00
36062;BME280;22123;52.412;20.970;2023-03-21T03:57:15;100499.03;;;6.38;100.00
36062;BME280;22123;52.412;20.970;2023-03-21T03:59:43;100515.47;;;6.43;100.00
36062;BME280;22123;52.412;20.970;2023-03-21T04:02:09;100510.13;;;6.43;100.00
36062;BME280;22123;52.412;20.970;2023-03-21T04:04:35;100514.34;;;6.46;100.00
36062;BME280;22123;52.412;20.970;2023-03-21T04:07:02;100448.44;;;6.07;100.00
36062;BME280;22123;52.412;20.970;2023-03-21T04:09:28;100456.47;;;6.07;100.00
36062;BME280;22123;52.412;20.970;2023-03-21T04:11:55;100468.97;;;6.16;100.00
36062;BME280;22123;52.412;20.970;2023-03-21T04:14:22;100502.00;;;6.35;100.00
36062;BME280;22123;52.412;20.970;2023-03-21T04:16:48;100463.34;;;6.09;100.00
36062;BME280;22123;52.412;20.970;2023-03-21T04:19:14;100479.38;;;6.19;100.00
36062;BME280;22123;52.412;20.970;2023-03-21T04:21:40;100472.31;;;6.18;100.00
36062;BME280;22123;52.412;20.970;2023-03-21T04:24:06;100499.31;;;6.35;100.00
36062;BME280;22123;52.412;20.970;2023-03-21T04:26:32;100494.56;;;6.29;100.00
36062;BME280;22123;52.412;20.970;2023-03-21T04:28:59;100514.78;;;6.41;100.00
36062;BME280;22123;52.412;20.970;2023-03-21T04:31:25;100498.22;;;6.28;100.00
36062;BME280;22123;52.412;20.970;2023-03-21T04:33:51;100507.88;;;6.38;100.00
36062;BME280;22123;52.412;20.970;2023-03-21T04:36:17;100503.28;;;6.31;100.00
36062;BME280;22123;52.412;20.970;2023-03-21T04:38:43;100458.72;;;6.02;100.00
36062;BME280;22123;52.412;20.970;2023-03-21T04:41:09;100473.75;;;6.13;100.00
36062;BME280;22123;52.412;20.970;2023-03-21T04:43:35;100518.72;;;6.37;100.00
36062;BME280;22123;52.412;20.970;2023-03-21T04:46:01;100508.19;;;6.35;100.00
36062;BME280;22123;52.412;20.970;2023-03-21T04:48:27;100484.84;;;6.18;100.00
36062;BME280;22123;52.412;20.970;2023-03-21T04:50:53;100488.34;;;6.18;100.00
36062;BME280;22123;52.412;20.970;2023-03-21T04:53:18;100530.84;;;6.41;100.00
36062;BME280;22123;52.412;20.970;2023-03-21T04:55:44;100458.25;;;5.97;100.00
36062;BME280;22123;52.412;20.970;2023-03-21T04:58:10;100526.31;;;6.41;100.00
36062;BME280;22123;52.412;20.970;2023-03-21T05:00:36;100518.03;;;6.35;100.00
36062;BME280;22123;52.412;20.970;2023-03-21T05:03:04;100526.88;;;6.45;100.00
36062;BME280;22123;52.412;20.970;2023-03-21T05:05:30;100463.47;;;6.08;100.00
36062;BME280;22123;52.412;20.970;2023-03-21T05:07:56;100468.13;;;6.06;100.00
36062;BME280;22123;52.412;20.970;2023-03-21T05:10:22;100516.06;;;6.37;100.00
36062;BME280;22123;52.412;20.970;2023-03-21T05:12:47;100504.41;;;6.28;100.00
36062;BME280;22123;52.412;20.970;2023-03-21T05:15:13;100507.22;;;6.26;100.00
36062;BME280;22123;52.412;20.970;2023-03-21T05:17:39;100510.31;;;6.32;100.00
36062;BME280;22123;52.412;20.970;2023-03-21T05:20:05;100531.66;;;6.41;100.00
36062;BME280;22123;52.412;20.970;2023-03-21T05:22:31;100527.19;;;6.42;100.00
36062;BME280;22123;52.412;20.970;2023-03-21T05:24:58;100493.31;;;6.23;100.00
36062;BME280;22123;52.412;20.970;2023-03-21T05:27:24;100466.88;;;6.10;100.00
36062;BME280;22123;52.412;20.970;2023-03-21T05:29:50;100496.22;;;6.30;100.00
36062;BME280;22123;52.412;20.970;2023-03-21T05:32:16;100466.72;;;6.12;100.00
36062;BME280;22123;52.412;20.970;2023-03-21T05:34:42;100528.16;;;6.51;100.00
36062;BME280;22123;52.412;20.970;2023-03-21T05:37:07;100500.59;;;6.40;100.00
36062;BME280;22123;52.412;20.970;2023-03-21T05:39:33;100455.47;;;6.08;100.00
36062;BME280;22123;52.412;20.970;2023-03-21T05:41:59;100494.66;;;6.37;100.00
36062;BME280;22123;52.412;20.970;2023-03-21T05:44:25;100521.53;;;6.55;100.00
36062;BME280;22123;52.412;20.970;2023-03-21T05:46:51;100549.34;;;6.72;100.00
36062;BME280;22123;52.412;20.970;2023-03-21T05:49:17;100531.06;;;6.57;100.00
36062;BME280;22123;52.412;20.970;2023-03-21T05:51:43;100509.00;;;6.46;100.00
36062;BME280;22123;52.412;20.970;2023-03-21T05:54:09;100514.91;;;6.49;100.00
36062;BME280;22123;52.412;20.970;2023-03-21T05:56:34;100494.38;;;6.40;100.00
36062;BME280;22123;52.412;20.970;2023-03-21T05:59:00;100563.13;;;6.77;100.00
36062;BME280;22123;52.412;20.970;2023-03-21T06:01:26;100524.44;;;6.61;100.00
36062;BME280;22123;52.412;20.970;2023-03-21T06:03:52;100560.31;;;6.78;100.00
36062;BME280;22123;52.412;20.970;2023-03-21T06:06:18;100540.19;;;6.65;100.00
36062;BME280;22123;52.412;20.970;2023-03-21T06:08:44;100497.78;;;6.32;100.00
36062;BME280;22123;52.412;20.970;2023-03-21T06:11:26;100537.13;;;6.59;100.00
36062;BME280;22123;52.412;20.970;2023-03-21T06:13:53;100536.16;;;6.60;100.00
36062;BME280;22123;52.412;20.970;2023-03-21T06:16:19;100578.91;;;6.80;100.00
36062;BME280;22123;52.412;20.970;2023-03-21T06:18:44;100515.34;;;6.44;100.00
36062;BME280;22123;52.412;20.970;2023-03-21T06:21:10;100537.97;;;6.60;100.00
36062;BME280;22123;52.412;20.970;2023-03-21T06:23:36;100576.22;;;6.80;100.00
36062;BME280;22123;52.412;20.970;2023-03-21T06:26:03;100525.03;;;6.46;100.00
36062;BME280;22123;52.412;20.970;2023-03-21T06:28:29;100532.25;;;6.45;100.00
36062;BME280;22123;52.412;20.970;2023-03-21T06:30:54;100538.84;;;6.51;100.00
36062;BME280;22123;52.412;20.970;2023-03-21T06:33:20;100549.69;;;6.59;100.00
36062;BME280;22123;52.412;20.970;2023-03-21T06:35:53;100552.22;;;6.60;100.00
36062;BME280;22123;52.412;20.970;2023-03-21T06:38:20;100584.81;;;6.84;100.00
36062;BME280;22123;52.412;20.970;2023-03-21T06:40:46;100586.63;;;6.83;100.00
36062;BME280;22123;52.412;20.970;2023-03-21T06:43:13;100587.34;;;6.85;100.00
36062;BME280;22123;52.412;20.970;2023-03-21T06:45:39;100513.09;;;6.40;100.00
36062;BME280;22123;52.412;20.970;2023-03-21T06:48:05;100566.94;;;6.74;100.00
36062;BME280;22123;52.412;20.970;2023-03-21T06:50:31;100544.56;;;6.66;100.00
36062;BME280;22123;52.412;20.970;2023-03-21T06:52:57;100519.84;;;6.34;100.00
36062;BME280;22123;52.412;20.970;2023-03-21T06:55:22;100595.75;;;7.00;100.00
36062;BME280;22123;52.412;20.970;2023-03-21T06:57:48;100528.81;;;6.63;100.00
36062;BME280;22123;52.412;20.970;2023-03-21T07:00:15;100583.91;;;7.03;100.00
36062;BME280;22123;52.412;20.970;2023-03-21T07:02:41;100603.47;;;7.13;100.00
36062;BME280;22123;52.412;20.970;2023-03-21T07:05:07;100581.94;;;6.95;100.00
36062;BME280;22123;52.412;20.970;2023-03-21T07:07:33;100607.25;;;7.20;100.00
36062;BME280;22123;52.412;20.970;2023-03-21T07:09:59;100568.16;;;7.00;100.00
36062;BME280;22123;52.412;20.970;2023-03-21T07:12:24;100559.56;;;6.96;100.00
36062;BME280;22123;52.412;20.970;2023-03-21T07:14:50;100616.34;;;7.37;100.00
36062;BME280;22123;52.412;20.970;2023-03-21T07:17:16;100579.03;;;7.26;100.00
36062;BME280;22123;52.412;20.970;2023-03-21T07:19:42;100575.59;;;7.34;100.00
36062;BME280;22123;52.412;20.970;2023-03-21T07:22:08;100595.22;;;7.62;100.00
36062;BME280;22123;52.412;20.970;2023-03-21T07:24:34;100613.31;;;7.78;100.00
36062;BME280;22123;52.412;20.970;2023-03-21T07:27:00;100577.13;;;7.64;100.00
36062;BME280;22123;52.412;20.970;2023-03-21T07:29:26;100607.97;;;7.96;100.00
36062;BME280;22123;52.412;20.970;2023-03-21T07:31:51;100582.66;;;7.80;100.00
36062;BME280;22123;52.412;20.970;2023-03-21T07:34:17;100610.72;;;8.04;100.00
36062;BME280;22123;52.412;20.970;2023-03-21T07:36:43;100617.91;;;8.04;100.00
36062;BME280;22123;52.412;20.970;2023-03-21T07:39:09;100549.66;;;7.62;100.00
36062;BME280;22123;52.412;20.970;2023-03-21T07:41:35;100568.63;;;7.69;100.00
36062;BME280;22123;52.412;20.970;2023-03-21T07:44:01;100618.53;;;7.97;100.00
36062;BME280;22123;52.412;20.970;2023-03-21T07:46:27;100563.88;;;7.62;100.00
36062;BME280;22123;52.412;20.970;2023-03-21T07:48:53;100622.19;;;7.96;100.00
36062;BME280;22123;52.412;20.970;2023-03-21T07:51:18;100582.59;;;7.72;100.00
36062;BME280;22123;52.412;20.970;2023-03-21T07:53:44;100624.28;;;8.03;100.00
36062;BME280;22123;52.412;20.970;2023-03-21T07:56:10;100627.97;;;8.01;100.00
36062;BME280;22123;52.412;20.970;2023-03-21T07:58:36;100634.88;;;8.04;100.00
36062;BME280;22123;52.412;20.970;2023-03-21T08:01:02;100616.16;;;7.94;100.00
36062;BME280;22123;52.412;20.970;2023-03-21T08:03:28;100632.50;;;8.01;100.00
36062;BME280;22123;52.412;20.970;2023-03-21T08:05:54;100596.50;;;7.76;100.00
36062;BME280;22123;52.412;20.970;2023-03-21T08:08:20;100624.25;;;7.84;100.00
36062;BME280;22123;52.412;20.970;2023-03-21T08:10:46;100579.97;;;7.62;100.00
36062;BME280;22123;52.412;20.970;2023-03-21T08:13:12;100634.50;;;8.17;100.00
36062;BME280;22123;52.412;20.970;2023-03-21T08:15:38;100624.22;;;8.48;100.00
36062;BME280;22123;52.412;20.970;2023-03-21T08:18:04;100631.56;;;8.82;100.00
36062;BME280;22123;52.412;20.970;2023-03-21T08:20:30;100621.47;;;9.02;100.00
36062;BME280;22123;52.412;20.970;2023-03-21T08:22:55;100619.53;;;9.21;100.00
36062;BME280;22123;52.412;20.970;2023-03-21T08:25:21;100579.00;;;9.06;100.00
36062;BME280;22123;52.412;20.970;2023-03-21T08:27:48;100588.47;;;9.18;100.00
36062;BME280;22123;52.412;20.970;2023-03-21T08:30:17;100619.53;;;9.47;100.00
36062;BME280;22123;52.412;20.970;2023-03-21T08:32:44;100610.72;;;9.37;100.00
36062;BME280;22123;52.412;20.970;2023-03-21T08:35:11;100633.50;;;9.59;100.00
36062;BME280;22123;52.412;20.970;2023-03-21T08:37:39;100602.16;;;9.33;100.00
36062;BME280;22123;52.412;20.970;2023-03-21T08:40:06;100643.41;;;9.58;100.00
36062;BME280;22123;52.412;20.970;2023-03-21T08:42:33;100610.22;;;9.33;100.00
36062;BME280;22123;52.412;20.970;2023-03-21T08:44:59;100617.72;;;9.21;100.00
36062;BME280;22123;52.412;20.970;2023-03-21T08:47:25;100664.44;;;9.37;100.00
36062;BME280;22123;52.412;20.970;2023-03-21T08:49:51;100665.47;;;9.36;100.00
36062;BME280;22123;52.412;20.970;2023-03-21T08:52:17;100605.03;;;9.05;100.00
36062;BME280;22123;52.412;20.970;2023-03-21T08:54:43;100653.88;;;9.35;100.00
36062;BME280;22123;52.412;20.970;2023-03-21T08:57:09;100668.03;;;9.46;100.00
36062;BME280;22123;52.412;20.970;2023-03-21T08:59:35;100624.44;;;9.26;100.00
36062;BME280;22123;52.412;20.970;2023-03-21T09:02:01;100649.22;;;9.46;100.00
36062;BME280;22123;52.412;20.970;2023-03-21T09:04:27;100640.13;;;9.38;100.00
36062;BME280;22123;52.412;20.970;2023-03-21T09:06:53;100673.81;;;9.59;100.00
36062;BME280;22123;52.412;20.970;2023-03-21T09:09:19;100670.41;;;9.49;100.00
36062;BME280;22123;52.412;20.970;2023-03-21T09:11:44;100665.78;;;9.33;100.00
36062;BME280;22123;52.412;20.970;2023-03-21T09:14:10;100654.00;;;8.99;100.00
36062;BME280;22123;52.412;20.970;2023-03-21T09:16:36;100628.72;;;8.66;100.00
36062;BME280;22123;52.412;20.970;2023-03-21T09:19:02;100677.94;;;8.75;100.00
36062;BME280;22123;52.412;20.970;2023-03-21T09:21:29;100676.28;;;8.74;100.00
36062;BME280;22123;52.412;20.970;2023-03-21T09:23:55;100674.50;;;8.64;100.00
36062;BME280;22123;52.412;20.970;2023-03-21T09:26:22;100645.19;;;8.45;100.00
36062;BME280;22123;52.412;20.970;2023-03-21T09:28:48;100643.16;;;8.47;100.00
36062;BME280;22123;52.412;20.970;2023-03-21T09:31:14;100686.47;;;8.70;100.00
36062;BME280;22123;52.412;20.970;2023-03-21T09:33:41;100688.00;;;8.73;100.00
36062;BME280;22123;52.412;20.970;2023-03-21T09:36:08;100695.56;;;8.69;100.00
36062;BME280;22123;52.412;20.970;2023-03-21T09:38:34;100665.22;;;8.41;100.00
36062;BME280;22123;52.412;20.970;2023-03-21T09:48:58;100634.56;;;8.43;100.00
36062;BME280;22123;52.412;20.970;2023-03-21T09:51:30;100703.25;;;8.90;100.00
36062;BME280;22123;52.412;20.970;2023-03-21T09:54:02;100693.06;;;8.94;100.00
36062;BME280;22123;52.412;20.970;2023-03-21T09:56:29;100633.91;;;8.59;100.00
36062;BME280;22123;52.412;20.970;2023-03-21T09:58:56;100691.38;;;8.93;100.00
36062;BME280;22123;52.412;20.970;2023-03-21T10:01:26;100693.06;;;8.94;100.00
36062;BME280;22123;52.412;20.970;2023-03-21T10:03:53;100699.91;;;9.14;100.00
36062;BME280;22123;52.412;20.970;2023-03-21T10:06:19;100655.56;;;8.84;100.00
36062;BME280;22123;52.412;20.970;2023-03-21T10:08:45;100696.84;;;9.09;100.00
36062;BME280;22123;52.412;20.970;2023-03-21T10:13:48;100686.50;;;8.96;100.00
36062;BME280;22123;52.412;20.970;2023-03-21T10:16:20;100680.09;;;8.89;100.00
36062;BME280;22123;52.412;20.970;2023-03-21T10:18:48;100637.72;;;8.57;100.00
36062;BME280;22123;52.412;20.970;2023-03-21T10:21:20;100665.16;;;8.86;100.00
36062;BME280;22123;52.412;20.970;2023-03-21T10:23:48;100649.09;;;8.95;100.00
36062;BME280;22123;52.412;20.970;2023-03-21T10:26:15;100685.84;;;9.47;100.00
36062;BME280;22123;52.412;20.970;2023-03-21T10:28:41;100691.59;;;9.52;100.00
36062;BME280;22123;52.412;20.970;2023-03-21T10:31:08;100697.13;;;9.50;100.00
36062;BME280;22123;52.412;20.970;2023-03-21T10:33:42;100669.91;;;9.19;100.00
36062;BME280;22123;52.412;20.970;2023-03-21T10:36:11;100700.13;;;9.21;100.00
36062;BME280;22123;52.412;20.970;2023-03-21T10:38:43;100706.22;;;9.05;100.00
36062;BME280;22123;52.412;20.970;2023-03-21T10:41:10;100694.84;;;8.85;100.00
36062;BME280;22123;52.412;20.970;2023-03-21T10:43:38;100653.44;;;8.51;100.00
36062;BME280;22123;52.412;20.970;2023-03-21T10:46:16;100697.13;;;8.80;100.00
36062;BME280;22123;52.412;20.970;2023-03-21T10:48:43;100680.75;;;8.65;100.00
36062;BME280;22123;52.412;20.970;2023-03-21T10:51:09;100663.41;;;8.59;100.00
36062;BME280;22123;52.412;20.970;2023-03-21T10:53:38;100703.50;;;8.97;100.00
36062;BME280;22123;52.412;20.970;2023-03-21T10:56:07;100681.06;;;9.06;100.00
36062;BME280;22123;52.412;20.970;2023-03-21T10:58:37;100704.66;;;9.47;100.00
36062;BME280;22123;52.412;20.970;2023-03-21T11:01:09;100704.00;;;9.79;100.00
36062;BME280;22123;52.412;20.970;2023-03-21T11:03:37;100693.00;;;10.15;100.00
36062;BME280;22123;52.412;20.970;2023-03-21T11:06:07;100684.88;;;10.50;100.00
36062;BME280;22123;52.412;20.970;2023-03-21T11:08:43;100687.41;;;11.01;100.00
36062;BME280;22123;52.412;20.970;2023-03-21T11:11:28;100701.56;;;11.75;100.00
36062;BME280;22123;52.412;20.970;2023-03-21T11:14:00;100695.94;;;12.33;100.00
36062;BME280;22123;52.412;20.970;2023-03-21T11:19:00;100687.16;;;12.54;100.00
36062;BME280;22123;52.412;20.970;2023-03-21T11:21:34;100674.75;;;12.45;100.00
36062;BME280;22123;52.412;20.970;2023-03-21T11:24:01;100694.94;;;12.57;100.00
36062;BME280;22123;52.412;20.970;2023-03-21T11:26:34;100693.66;;;12.45;100.00
36062;BME280;22123;52.412;20.970;2023-03-21T11:29:22;100660.03;;;11.84;100.00
36062;BME280;22123;52.412;20.970;2023-03-21T11:31:50;100698.69;;;11.77;100.00
36062;BME280;22123;52.412;20.970;2023-03-21T11:34:33;100673.03;;;11.41;100.00
36062;BME280;22123;52.412;20.970;2023-03-21T11:37:03;100685.69;;;11.24;100.00
36062;BME280;22123;52.412;20.970;2023-03-21T11:39:37;100689.09;;;11.18;100.00
36062;BME280;22123;52.412;20.970;2023-03-21T11:42:03;100650.72;;;10.83;100.00
36062;BME280;22123;52.412;20.970;2023-03-21T11:44:32;100686.44;;;10.93;100.00
36062;BME280;22123;52.412;20.970;2023-03-21T11:46:58;100684.91;;;10.66;100.00
36062;BME280;22123;52.412;20.970;2023-03-21T11:49:25;100692.06;;;10.33;100.00
36062;BME280;22123;52.412;20.970;2023-03-21T11:57:56;100691.53;;;9.78;100.00
36062;BME280;22123;52.412;20.970;2023-03-21T12:06:00;100687.25;;;9.59;100.00
36062;BME280;22123;52.412;20.970;2023-03-21T12:13:50;100680.69;;;10.80;100.00
36062;BME280;22123;52.412;20.970;2023-03-21T12:16:48;100671.22;;;11.09;100.00
36062;BME280;22123;52.412;20.970;2023-03-21T12:25:04;100673.94;;;11.01;100.00
36062;BME280;22123;52.412;20.970;2023-03-21T12:28:04;100674.28;;;10.73;100.00
36062;BME280;22123;52.412;20.970;2023-03-21T12:38:35;100681.75;;;9.34;100.00
36062;BME280;22123;52.412;20.970;2023-03-21T12:41:10;100676.06;;;9.11;100.00
36062;BME280;22123;52.412;20.970;2023-03-21T12:46:15;100678.94;;;8.92;100.00
36062;BME280;22123;52.412;20.970;2023-03-21T12:49:12;100640.50;;;8.65;100.00
36062;BME280;22123;52.412;20.970;2023-03-21T12:51:46;100670.81;;;8.83;100.00
36062;BME280;22123;52.412;20.970;2023-03-21T12:54:32;100682.09;;;8.87;100.00
36062;BME280;22123;52.412;20.970;2023-03-21T12:57:16;100670.41;;;8.96;100.00
36062;BME280;22123;52.412;20.970;2023-03-21T12:59:52;100673.22;;;9.13;100.00
36062;BME280;22123;52.412;20.970;2023-03-21T13:07:51;100657.72;;;9.67;100.00
36062;BME280;22123;52.412;20.970;2023-03-21T13:10:20;100670.25;;;9.93;100.00
36062;BME280;22123;52.412;20.970;2023-03-21T13:12:52;100666.75;;;10.01;100.00
36062;BME280;22123;52.412;20.970;2023-03-21T13:15:37;100637.31;;;9.99;100.00
36062;BME280;22123;52.412;20.970;2023-03-21T13:26:57;100628.88;;;10.53;100.00
36062;BME280;22123;52.412;20.970;2023-03-21T13:29:45;100651.22;;;10.78;100.00
36062;BME280;22123;52.412;20.970;2023-03-21T13:37:57;100639.00;;;11.40;100.00
36062;BME280;22123;52.412;20.970;2023-03-21T13:40:27;100653.81;;;11.84;100.00
36062;BME280;22123;52.412;20.970;2023-03-21T13:43:00;100610.31;;;11.95;100.00
36062;BME280;22123;52.412;20.970;2023-03-21T13:48:03;100616.50;;;12.04;100.00
36062;BME280;22123;52.412;20.970;2023-03-21T13:50:50;100647.28;;;12.18;100.00
36062;BME280;22123;52.412;20.970;2023-03-21T13:53:21;100643.31;;;12.29;100.00
36062;BME280;22123;52.412;20.970;2023-03-21T13:55:58;100619.66;;;12.31;100.00
36062;BME280;22123;52.412;20.970;2023-03-21T14:03:59;100635.94;;;12.46;100.00
36062;BME280;22123;52.412;20.970;2023-03-21T14:06:39;100585.44;;;12.08;100.00
36062;BME280;22123;52.412;20.970;2023-03-21T14:09:06;100603.19;;;12.26;100.00
36062;BME280;22123;52.412;20.970;2023-03-21T14:11:33;100605.28;;;12.15;100.00
36062;BME280;22123;52.412;20.970;2023-03-21T14:14:00;100611.00;;;11.89;100.00
36062;BME280;22123;52.412;20.970;2023-03-21T14:16:27;100609.78;;;11.60;100.00
36062;BME280;22123;52.412;20.970;2023-03-21T14:18:58;100647.91;;;11.49;100.00
36062;BME280;22123;52.412;20.970;2023-03-21T14:21:30;100642.59;;;11.24;100.00
36062;BME280;22123;52.412;20.970;2023-03-21T14:24:04;100638.78;;;11.02;100.00
36062;BME280;22123;52.412;20.970;2023-03-21T14:26:33;100596.41;;;10.55;100.00
36062;BME280;22123;52.412;20.970;2023-03-21T14:29:02;100646.72;;;10.79;100.00
36062;BME280;22123;52.412;20.970;2023-03-21T14:31:29;100613.72;;;10.52;100.00
36062;BME280;22123;52.412;20.970;2023-03-21T14:33:56;100586.59;;;10.29;100.00
36062;BME280;22123;52.412;20.970;2023-03-21T14:36:25;100652.06;;;10.63;100.00
36062;BME280;22123;52.412;20.970;2023-03-21T14:41:53;100652.25;;;10.44;100.00